Time;durP1;ratioP1;P1;durP2;ratioP2;P2;SDS_P1;SDS_P2;PMS_P1;PMS_P2;Temp;Humidity;BMP_temperature;BMP_pressure;BME280_temperature;BME280_humidity;BME280_pressure;Samples;Min_cycle;Max_cycle;Signal;HPM_P1;HPM_P2
2022/02/10 00:05:51;;;;;;;8.90;4.20;;;1.90;99.90;;;2.70;100.00;98782.38;5080786;28;20579;-74
2022/02/10 00:14:17;;;;;;;9.60;4.30;;;1.40;99.90;;;2.53;100.00;98775.94;5081713;28;20495;-75
2022/02/10 00:19:48;;;;;;;6.90;3.30;;;1.50;99.90;;;2.64;100.00;98769.13;5079872;28;20466;-74
2022/02/10 00:22:28;;;;;;;7.20;3.93;;;1.70;99.90;;;2.43;100.00;98769.03;5080348;28;21006;-74
2022/02/10 00:36:06;;;;;;;6.40;3.60;;;1.40;99.90;;;2.34;100.00;98762.81;5077851;28;20894;-75
2022/02/10 00:38:41;;;;;;;6.17;3.20;;;1.30;99.90;;;2.27;100.00;98763.38;5079632;28;20461;-75
2022/02/10 00:41:13;;;;;;;7.87;3.83;;;1.30;99.90;;;2.17;100.00;98758.13;5079404;28;20553;-74
2022/02/10 00:43:43;;;;;;;5.70;3.47;;;1.20;99.90;;;2.17;100.00;98760.69;5077658;28;20453;-75
2022/02/10 00:46:15;;;;;;;6.70;3.73;;;1.20;99.90;;;2.14;100.00;98753.19;5078596;28;20466;-74
2022/02/10 00:48:46;;;;;;;6.37;4.30;;;1.20;99.90;;;2.20;100.00;98752.72;5078731;28;20525;-74
2022/02/10 00:51:15;;;;;;;4.73;3.50;;;1.20;99.90;;;2.15;100.00;98760.00;5079572;28;20470;-74
2022/02/10 00:53:46;;;;;;;9.20;4.03;;;1.20;99.90;;;2.27;100.00;98753.06;5080727;28;20489;-75
2022/02/10 00:56:16;;;;;;;6.13;3.57;;;1.30;99.90;;;2.21;100.00;98758.72;5078941;28;20476;-74
2022/02/10 00:58:57;;;;;;;5.10;3.77;;;1.20;99.90;;;2.16;100.00;98748.72;5081186;28;20566;-74
2022/02/10 01:07:06;;;;;;;6.23;3.93;;;1.20;99.90;;;2.22;100.00;98735.34;5079303;28;20888;-74
2022/02/10 01:12:32;;;;;;;8.20;3.73;;;1.40;99.90;;;2.26;100.00;98741.94;5077226;28;20479;-74
2022/02/10 01:31:45;;;;;;;7.67;3.80;;;1.10;99.90;;;2.11;100.00;98719.91;5078074;28;20461;-74
2022/02/10 01:34:17;;;;;;;5.50;3.43;;;1.10;99.90;;;2.20;100.00;98723.53;5079838;28;20460;-74
2022/02/10 01:36:47;;;;;;;8.63;4.23;;;1.10;99.90;;;2.20;100.00;98723.53;5079432;28;20473;-74
2022/02/10 01:39:23;;;;;;;4.90;3.63;;;1.20;99.90;;;2.15;100.00;98718.75;5077362;28;20469;-74
2022/02/10 02:03:16;;;;;;;6.10;4.27;;;1.10;99.90;;;2.11;100.00;98714.75;5083286;28;20916;-74
2022/02/10 02:04:18;;;;;;;8.87;4.07;;;1.10;99.90;;;2.01;100.00;98713.81;5077495;28;20467;-74
2022/02/10 02:06:51;;;;;;;7.20;4.00;;;1.00;99.90;;;2.02;100.00;98713.69;5079841;28;20461;-74
2022/02/10 02:09:22;;;;;;;9.40;5.13;;;1.00;99.90;;;2.07;100.00;98712.50;5080317;28;20514;-74
2022/02/10 02:11:55;;;;;;;8.53;4.30;;;1.00;99.90;;;2.05;100.00;98704.88;5080479;28;20480;-74
2022/02/10 02:14:28;;;;;;;10.07;3.90;;;1.00;99.90;;;1.96;100.00;98692.69;5080768;28;20571;-74
2022/02/10 02:17:02;;;;;;;10.63;4.47;;;0.90;99.90;;;1.91;100.00;98702.53;5078675;28;20504;-74
2022/02/10 02:19:33;;;;;;;8.47;4.07;;;0.90;99.90;;;1.85;100.00;98701.25;5076042;28;20496;-74
2022/02/10 02:22:06;;;;;;;12.87;4.80;;;0.80;99.90;;;1.73;100.00;98701.38;5077790;28;20959;-74
2022/02/10 02:24:37;;;;;;;8.00;3.90;;;0.70;99.90;;;1.85;100.00;98703.00;5079537;28;20454;-74
2022/02/10 02:27:09;;;;;;;7.23;4.13;;;0.80;99.90;;;1.81;100.00;98705.00;5077259;28;20469;-74
2022/02/10 02:29:44;;;;;;;9.13;4.70;;;0.80;99.90;;;1.90;100.00;98698.34;5080711;28;20481;-74
2022/02/10 02:32:20;;;;;;;8.00;4.40;;;1.00;99.90;;;1.97;100.00;98695.19;5079269;28;20587;-74
2022/02/10 02:37:59;;;;;;;6.50;3.80;;;1.10;99.90;;;1.94;100.00;98679.13;5067429;28;20468;-74
2022/02/10 03:05:56;;;;;;;7.50;4.00;;;0.70;99.90;;;1.66;100.00;98640.91;5078039;28;20888;-75
2022/02/10 03:08:42;;;;;;;6.23;3.93;;;0.70;99.90;;;1.69;100.00;98638.09;5076763;28;20477;-74
2022/02/10 03:11:14;;;;;;;6.30;4.40;;;0.70;99.90;;;1.62;100.00;98637.75;5076707;28;21062;-74
2022/02/10 03:13:48;;;;;;;5.83;4.33;;;0.60;99.90;;;1.67;100.00;98642.53;5078516;28;20497;-74
2022/02/10 03:19:16;;;;;;;6.17;3.53;;;0.40;99.90;;;1.45;100.00;98645.94;5074402;28;20465;-74
2022/02/10 03:22:02;;;;;;;6.63;3.60;;;0.50;99.90;;;1.52;100.00;98650.50;5079772;28;20518;-74
2022/02/10 04:07:31;;;;;;;5.30;3.60;;;0.90;99.90;;;1.74;100.00;98621.31;5059332;28;20564;-75
2022/02/10 04:13:06;;;;;;;6.90;4.33;;;0.80;99.90;;;1.73;100.00;98624.03;5045177;28;20458;-77
2022/02/10 04:15:43;;;;;;;6.10;4.20;;;0.80;99.90;;;1.70;100.00;98619.13;5082015;28;20556;-74
2022/02/10 04:21:22;;;;;;;8.23;4.20;;;0.80;99.90;;;1.74;100.00;98621.31;5081053;28;20481;-75
2022/02/10 04:24:14;;;;;;;7.90;3.90;;;0.70;99.90;;;1.80;100.00;98617.47;5085985;28;20961;-74
2022/02/10 04:26:54;;;;;;;11.17;4.30;;;0.90;99.90;;;1.83;100.00;98607.75;5083503;28;20467;-75
2022/02/10 04:38:18;;;;;;;7.87;4.40;;;1.10;99.90;;;1.99;100.00;98579.00;5077387;28;20551;-75
2022/02/10 04:44:12;;;;;;;12.83;4.80;;;1.20;99.90;;;2.12;100.00;98569.34;5078173;28;20461;-75
2022/02/10 05:01:01;;;;;;;12.80;5.23;;;1.30;99.90;;;2.22;100.00;98559.94;5072834;28;20465;-75
2022/02/10 05:18:08;;;;;;;8.00;5.40;;;1.60;99.90;;;2.42;100.00;98560.94;5083306;28;20503;-80
2022/02/10 05:21:05;;;;;;;9.10;4.70;;;1.70;99.90;;;2.45;100.00;98563.28;5082432;28;20820;-75
2022/02/10 05:23:56;;;;;;;11.53;4.73;;;1.70;99.90;;;2.48;100.00;98555.28;5084295;28;20456;-74
2022/02/10 05:32:36;;;;;;;8.27;4.20;;;1.80;99.90;;;2.52;100.00;98557.50;5087754;28;20552;-74
2022/02/10 05:35:25;;;;;;;9.77;6.38;;;1.70;99.90;;;2.55;100.00;98543.53;5086795;28;20436;-75
2022/02/10 05:38:04;;;;;;;8.63;5.20;;;1.70;99.90;;;2.56;100.00;98541.78;5084307;28;20205;-74
2022/02/10 05:43:38;;;;;;;8.90;4.83;;;1.70;99.90;;;2.60;100.00;98543.16;5058287;28;20483;-74
2022/02/10 05:46:18;;;;;;;9.93;4.97;;;1.80;99.90;;;2.62;100.00;98543.84;5082827;28;20447;-74
2022/02/10 05:49:20;;;;;;;16.57;4.63;;;1.90;99.90;;;2.59;100.00;98547.50;5081500;28;20529;-74
2022/02/10 05:52:30;;;;;;;7.30;3.97;;;1.80;99.90;;;2.64;100.00;98544.56;5082379;28;21016;-75
2022/02/10 05:55:14;;;;;;;5.70;4.10;;;2.00;99.90;;;2.65;100.00;98541.00;5082837;28;20457;-75
2022/02/10 05:57:51;;;;;;;7.67;4.80;;;1.90;99.90;;;2.66;100.00;98552.97;5083752;28;20510;-74
2022/02/10 06:52:16;;;;;;;8.07;4.80;;;2.30;99.90;;;3.04;100.00;98566.16;4989201;28;20565;-75
2022/02/10 06:54:59;;;;;;;9.77;5.70;;;2.30;99.90;;;3.09;100.00;98571.75;5060666;28;20486;-74
2022/02/10 07:03:56;;;;;;;29.53;6.97;;;2.40;99.90;;;3.23;100.00;98580.97;5022851;28;20458;-75
2022/02/10 07:06:52;;;;;;;16.57;5.10;;;2.50;99.90;;;3.26;100.00;98580.69;5074943;28;20533;-73
2022/02/10 07:09:41;;;;;;;16.43;5.50;;;2.60;99.90;;;3.29;100.00;98583.03;5080591;28;20455;-73
2022/02/10 07:12:33;;;;;;;11.17;6.20;;;2.70;99.90;;;3.33;100.00;98590.38;5084726;28;20513;-73
2022/02/10 07:15:30;;;;;;;20.03;6.27;;;2.80;99.90;;;3.41;100.00;98585.38;5086771;28;20453;-73
2022/02/10 07:49:32;;;;;;;12.27;6.87;;;3.60;99.90;;;4.23;100.00;98601.59;5084919;28;20850;-75
2022/02/10 07:52:33;;;;;;;12.80;6.77;;;3.60;99.90;;;4.28;100.00;98599.41;5083789;28;20490;-75
2022/02/10 07:55:32;;;;;;;12.80;7.00;;;3.60;99.90;;;4.37;100.00;98597.81;5085015;28;20941;-75
2022/02/10 07:58:28;;;;;;;18.77;6.70;;;3.80;99.90;;;4.41;100.00;98607.75;5083023;28;20458;-75
2022/02/10 08:26:20;;;;;;;18.70;7.20;;;4.20;99.90;;;4.75;100.00;98618.56;5085309;28;20887;-75
2022/02/10 08:49:54;;;;;;;13.33;7.57;;;4.60;99.90;;;5.11;100.00;98635.16;5082723;28;20493;-75
2022/02/10 09:03:57;;;;;;;11.90;6.93;;;4.70;99.90;;;5.29;100.00;98650.84;5089679;28;20487;-75
2022/02/10 09:06:51;;;;;;;10.70;6.70;;;4.80;99.90;;;5.31;100.00;98656.72;5088563;28;20533;-75
2022/02/10 09:15:34;;;;;;;10.93;6.73;;;4.80;99.90;;;5.38;100.00;98660.38;5066264;28;20447;-74
2022/02/10 09:18:32;;;;;;;11.37;6.93;;;4.90;99.90;;;5.43;100.00;98671.97;5089783;28;20447;-75
2022/02/10 09:55:29;;;;;;;10.60;6.17;;;5.30;99.90;;;5.92;100.00;98677.88;5065247;28;20462;-75
2022/02/10 09:58:31;;;;;;;4.30;3.90;;;5.40;99.90;;;5.94;100.00;98670.75;5088958;28;20443;-75
2022/02/10 10:01:30;;;;;;;258.07;36.30;;;5.50;99.90;;;5.97;100.00;98681.69;5086622;28;20451;-75
2022/02/10 10:04:07;;;;;;;11.17;4.63;;;5.40;99.90;;;5.99;100.00;98682.38;5089035;28;20451;-75
2022/02/10 10:07:01;;;;;;;7.33;4.50;;;5.50;99.90;;;6.05;100.00;98686.16;5088034;28;20943;-74
2022/02/10 10:09:43;;;;;;;6.73;4.90;;;5.60;99.90;;;6.10;100.00;98694.34;5089526;28;20447;-74
2022/02/10 10:15:40;;;;;;;6.30;4.40;;;5.70;99.90;;;6.12;100.00;98700.22;5055303;28;20447;-75
2022/02/10 10:18:41;;;;;;;6.37;4.30;;;5.60;99.90;;;6.13;100.00;98696.66;5084778;28;20453;-75
2022/02/10 10:21:31;;;;;;;3.87;3.50;;;5.60;99.90;;;6.18;100.00;98704.81;5080560;28;20888;-75
2022/02/10 10:24:55;;;;;;;5.57;3.77;;;5.70;99.90;;;6.21;100.00;98701.97;5081443;28;20939;-75
2022/02/10 10:51:23;;;;;;;5.17;4.23;;;5.90;99.90;;;6.38;100.00;98698.59;5087924;28;20451;-74
2022/02/10 10:54:05;;;;;;;4.87;3.60;;;5.90;99.90;;;6.38;100.00;98695.19;5088450;28;20495;-75
2022/02/10 10:56:38;;;;;;;45.47;5.80;;;5.90;99.90;;;6.37;100.00;98683.97;5087987;28;20467;-75
2022/02/10 10:59:35;;;;;;;6.70;3.57;;;5.80;99.90;;;6.39;100.00;98684.63;5088707;28;20539;-75
2022/02/10 11:37:01;;;;;;;8.77;5.37;;;6.00;99.90;;;6.57;100.00;98690.69;5086847;28;20451;-76
2022/02/10 11:39:42;;;;;;;7.83;4.40;;;6.10;99.90;;;6.60;100.00;98692.16;5087068;28;20451;-75
2022/02/10 11:42:51;;;;;;;7.27;4.20;;;6.10;99.90;;;6.58;100.00;98691.50;5084574;28;21062;-75
2022/02/10 12:30:06;;;;;;;10.10;5.53;;;6.30;99.90;;;6.90;100.00;98691.03;5089599;28;20447;-75
2022/02/10 13:24:58;;;;;;;14.47;8.10;;;6.30;99.90;;;6.97;100.00;98658.28;5084102;28;20589;-75
2022/02/10 14:12:05;;;;;;;50.43;12.73;;;6.40;99.90;;;6.83;100.00;98671.78;5088562;28;20475;-75
2022/02/10 14:14:31;;;;;;;20.87;9.60;;;6.20;99.90;;;6.79;100.00;98671.28;5086346;28;21002;-75
2022/02/10 14:17:03;;;;;;;13.33;8.10;;;6.20;99.90;;;6.80;100.00;98669.50;5087222;28;20498;-75
2022/02/10 14:19:39;;;;;;;16.83;9.43;;;6.20;99.90;;;6.87;100.00;98671.34;5089055;28;20502;-75
2022/02/10 14:22:24;;;;;;;36.43;11.97;;;6.30;99.90;;;6.80;100.00;98669.50;5088677;28;20804;-75
2022/02/10 14:28:06;;;;;;;15.30;8.60;;;6.30;99.90;;;6.85;100.00;98667.25;5088717;28;20969;-75
2022/02/10 14:30:38;;;;;;;16.10;9.20;;;6.30;99.90;;;6.85;100.00;98677.66;5088764;28;20436;-75
2022/02/10 14:33:11;;;;;;;172.87;26.90;;;6.30;99.90;;;6.84;100.00;98676.84;5087864;28;20444;-75
2022/02/10 14:35:52;;;;;;;22.20;10.40;;;6.30;99.90;;;6.86;100.00;98674.91;5086738;28;20544;-75
2022/02/10 14:38:44;;;;;;;38.60;14.07;;;6.40;99.90;;;6.90;100.00;98675.44;5089061;28;20467;-74
2022/02/10 15:46:49;;;;;;;16.63;8.80;;;6.20;99.90;;;6.58;100.00;98645.56;5026452;28;20477;-74
2022/02/10 15:49:45;;;;;;;15.57;8.63;;;6.10;99.90;;;6.62;100.00;98656.50;5084732;28;20491;-75
2022/02/10 16:18:09;;;;;;;89.67;18.43;;;6.00;99.90;;;6.50;100.00;98642.88;5091828;28;20477;-74
2022/02/10 16:20:38;;;;;;;18.30;9.50;;;6.00;99.90;;;6.49;100.00;98641.22;5090954;28;21275;-74
2022/02/10 16:23:16;;;;;;;166.00;25.40;;;6.00;99.90;;;6.48;100.00;98641.41;5090307;28;20477;-74
2022/02/10 16:25:51;;;;;;;142.97;20.83;;;6.00;99.90;;;6.47;100.00;98643.19;5090664;28;20456;-74
2022/02/10 16:28:30;;;;;;;43.90;10.10;;;6.00;99.90;;;6.47;100.00;98626.78;5089617;28;20530;-74
2022/02/10 16:31:02;;;;;;;53.83;13.60;;;5.90;99.90;;;6.48;100.00;98624.03;5088432;28;21030;-74
2022/02/10 16:33:38;;;;;;;20.60;8.57;;;6.00;99.90;;;6.53;100.00;98631.38;5089652;28;20516;-75
2022/02/10 16:36:16;;;;;;;49.33;12.33;;;6.10;99.90;;;6.53;100.00;98631.38;5090016;28;20507;-74
2022/02/10 16:38:48;;;;;;;17.00;8.13;;;6.10;99.90;;;6.57;100.00;98632.72;5089526;28;20452;-74
2022/02/10 16:41:19;;;;;;;42.47;10.00;;;6.10;99.90;;;6.56;100.00;98631.06;5090550;28;20443;-75
2022/02/10 16:44:00;;;;;;;54.33;13.50;;;6.10;99.90;;;6.55;100.00;98629.47;5089620;28;20470;-75
2022/02/10 16:46:35;;;;;;;28.10;9.43;;;6.10;99.90;;;6.56;100.00;98631.91;5083460;28;20201;-74
2022/02/10 16:49:10;;;;;;;16.80;7.33;;;6.00;99.90;;;6.57;100.00;98625.75;5082558;28;20539;-74
2022/02/10 16:51:46;;;;;;;23.83;8.27;;;6.10;99.90;;;6.56;100.00;98621.50;5083449;28;20452;-75
2022/02/10 16:54:26;;;;;;;18.73;8.53;;;6.10;99.90;;;6.54;100.00;98628.63;5084686;28;20451;-75
2022/02/10 16:57:02;;;;;;;15.87;8.00;;;6.00;99.90;;;6.51;100.00;98623.75;5074392;28;20675;-75
2022/02/10 16:59:43;;;;;;;38.53;10.87;;;6.00;99.90;;;6.53;100.00;98623.56;5079235;28;20459;-86
2022/02/10 17:05:32;;;;;;;37.50;12.33;;;6.10;99.90;;;6.60;100.00;98624.63;5080164;28;20695;-75
2022/02/10 17:19:59;;;;;;;11.53;7.20;;;6.10;99.90;;;6.60;100.00;98627.22;5076258;28;20849;-76
2022/02/10 17:25:24;;;;;;;18.70;10.10;;;6.00;99.90;;;6.56;100.00;98616.31;5077645;28;20916;-78
2022/02/10 17:27:58;;;;;;;14.10;7.77;;;6.00;99.90;;;6.57;100.00;98611.94;5067756;28;20454;-75
2022/02/10 17:33:52;;;;;;;14.53;7.33;;;6.00;99.90;;;6.60;100.00;98611.63;5071423;28;20812;-75
2022/02/10 17:36:32;;;;;;;10.07;6.53;;;6.00;99.90;;;6.59;100.00;98618.59;5077816;28;20487;-75
2022/02/10 17:42:11;;;;;;;11.00;5.60;;;6.00;99.90;;;6.62;100.00;98622.72;5077961;28;20463;-75
2022/02/10 17:44:54;;;;;;;9.83;5.70;;;6.10;99.90;;;6.59;100.00;98623.78;5078497;28;20517;-75
2022/02/10 17:53:02;;;;;;;12.03;6.70;;;6.10;99.90;;;6.63;100.00;98626.13;5079262;28;20541;-75
2022/02/10 17:55:32;;;;;;;8.90;6.20;;;6.10;99.90;;;6.64;100.00;98619.94;5073830;28;20549;-75
2022/02/10 17:58:02;;;;;;;10.13;6.67;;;6.10;99.90;;;6.59;100.00;98616.00;5079496;28;20463;-75
2022/02/10 18:00:31;;;;;;;12.43;6.77;;;6.10;99.90;;;6.63;100.00;98631.31;5074086;28;20474;-73
2022/02/10 18:03:03;;;;;;;70.97;31.70;;;6.10;99.90;;;6.61;100.00;98628.84;5074654;28;20463;-75
2022/02/10 18:06:05;;;;;;;10.70;7.00;;;6.10;99.90;;;6.66;100.00;98624.06;5075964;28;20459;-75
2022/02/10 18:08:35;;;;;;;12.43;5.90;;;6.20;99.90;;;6.68;100.00;98619.50;5077485;28;20460;-76
2022/02/10 18:13:54;;;;;;;11.67;6.50;;;6.20;99.90;;;6.68;100.00;98609.13;5079289;28;20473;-75
2022/02/10 18:16:27;;;;;;;14.40;6.93;;;6.20;99.90;;;6.68;100.00;98598.72;5075569;28;20689;-75
2022/02/10 18:19:05;;;;;;;14.40;7.13;;;6.20;99.90;;;6.66;100.00;98597.25;5076163;28;20488;-75
2022/02/10 18:21:56;;;;;;;11.87;7.07;;;6.20;99.90;;;6.63;100.00;98600.16;5074866;28;20534;-75
2022/02/10 18:24:56;;;;;;;9.50;5.67;;;6.10;99.90;;;6.60;100.00;98601.25;5080745;28;20467;-75
2022/02/10 18:27:43;;;;;;;11.27;7.20;;;6.00;99.90;;;6.61;100.00;98596.88;5080219;28;21263;-75
2022/02/10 18:30:22;;;;;;;11.77;7.33;;;6.10;99.90;;;6.62;100.00;98593.31;5075948;28;20459;-75
2022/02/10 18:33:30;;;;;;;9.97;6.40;;;6.10;99.90;;;6.61;100.00;98599.47;5077323;28;20544;-75
2022/02/10 19:09:47;;;;;;;17.23;6.37;;;6.00;99.90;;;6.55;100.00;98604.31;5079310;28;20475;-75
2022/02/10 19:12:22;;;;;;;10.47;6.20;;;6.00;99.90;;;6.58;100.00;98604.00;5079427;28;20481;-75
2022/02/10 19:14:55;;;;;;;11.63;7.73;;;6.00;99.90;;;6.58;100.00;98603.19;5075891;28;20471;-75
2022/02/10 19:17:28;;;;;;;15.87;8.07;;;6.00;99.90;;;6.61;100.00;98609.84;5075658;28;20499;-75
2022/02/10 19:19:58;;;;;;;15.80;8.47;;;6.00;99.90;;;6.62;100.00;98609.72;5081179;28;20474;-75
2022/02/10 19:22:28;;;;;;;13.73;6.73;;;6.20;99.90;;;6.64;100.00;98604.34;5082412;28;20546;-76
2022/02/10 19:25:01;;;;;;;11.10;6.67;;;6.10;99.90;;;6.62;100.00;98598.50;5078002;28;20883;-74
2022/02/10 19:27:30;;;;;;;11.73;6.60;;;6.10;99.90;;;6.61;100.00;98591.66;5079057;28;20451;-75
2022/02/10 19:30:02;;;;;;;10.27;6.33;;;6.10;99.90;;;6.58;100.00;98590.19;5078134;28;20459;-75
2022/02/10 19:32:33;;;;;;;11.00;6.80;;;6.10;99.90;;;6.54;100.00;98584.47;5079507;28;23238;-74
2022/02/10 19:35:02;;;;;;;10.90;6.70;;;6.10;99.90;;;6.55;100.00;98590.50;5075519;28;20542;-75
2022/02/10 19:37:33;;;;;;;9.37;6.10;;;6.00;99.90;;;6.57;100.00;98598.94;5083936;28;20857;-75
2022/02/10 19:40:10;;;;;;;12.97;7.43;;;6.10;99.90;;;6.56;100.00;98600.72;5076152;28;20991;-75
2022/02/10 19:42:42;;;;;;;13.63;6.80;;;6.10;99.90;;;6.55;100.00;98593.91;5080810;28;20958;-75
2022/02/10 19:45:12;;;;;;;9.90;5.90;;;6.10;99.90;;;6.58;100.00;98593.59;5076856;28;21012;-74
2022/02/10 19:47:42;;;;;;;9.10;5.63;;;6.10;99.90;;;6.55;100.00;98587.88;5080814;28;20581;-75
2022/02/10 19:50:22;;;;;;;14.80;6.80;;;6.00;99.90;;;6.55;100.00;98590.50;5076520;28;20491;-75
2022/02/10 19:52:54;;;;;;;9.90;6.10;;;6.00;99.90;;;6.49;100.00;98599.66;5080930;28;20491;-75
2022/02/10 19:55:26;;;;;;;12.67;6.40;;;5.90;99.90;;;6.47;100.00;98593.81;5076703;28;20801;-75
2022/02/10 19:58:03;;;;;;;13.67;6.47;;;5.90;99.90;;;6.53;100.00;98595.81;5076899;28;21029;-75
2022/02/10 20:00:41;;;;;;;9.73;5.90;;;6.00;99.90;;;6.49;100.00;98594.47;5075015;28;20479;-75
2022/02/10 20:03:14;;;;;;;9.00;5.27;;;5.90;99.90;;;6.52;100.00;98594.22;5083897;28;20455;-75
2022/02/10 20:05:45;;;;;;;15.83;5.90;;;5.90;99.90;;;6.47;100.00;98591.22;5082155;28;21030;-75
2022/02/10 20:08:17;;;;;;;8.73;5.97;;;5.90;99.90;;;6.40;100.00;98595.38;5079785;28;20802;-74
2022/02/10 20:10:53;;;;;;;97.70;41.37;;;5.80;99.90;;;6.46;100.00;98596.56;5078216;28;20486;-75
2022/02/10 20:13:24;;;;;;;72.83;36.30;;;5.80;99.90;;;6.49;100.00;98583.28;5071369;28;20586;-80
2022/02/10 20:15:58;;;;;;;13.43;6.17;;;5.90;99.90;;;6.45;100.00;98580.19;5077928;28;20455;-75
2022/02/10 20:18:27;;;;;;;10.50;6.27;;;5.90;99.90;;;6.48;100.00;98586.84;5073657;28;20464;-75
2022/02/10 20:20:57;;;;;;;11.13;6.50;;;5.90;99.90;;;6.47;100.00;98580.84;5085903;28;20807;-75
2022/02/10 20:23:30;;;;;;;8.83;5.90;;;5.90;99.90;;;6.48;100.00;98576.47;5086285;28;20436;-76
2022/02/10 20:26:18;;;;;;;11.70;6.00;;;6.00;99.90;;;6.46;100.00;98586.97;5087043;28;20487;-75
2022/02/10 20:28:48;;;;;;;10.53;6.47;;;5.90;99.90;;;6.47;100.00;98580.84;5085648;28;20566;-75
2022/02/10 20:31:19;;;;;;;9.47;6.30;;;5.90;99.90;;;6.48;100.00;98577.28;5086925;28;20448;-75
2022/02/10 20:33:49;;;;;;;7.17;4.90;;;6.00;99.90;;;6.46;100.00;98584.38;5086960;28;20459;-75
2022/02/10 20:36:20;;;;;;;13.80;5.70;;;5.90;99.90;;;6.45;100.00;98587.97;5085439;28;20522;-75
2022/02/10 20:38:55;;;;;;;9.50;6.10;;;5.90;99.90;;;6.42;100.00;98577.06;5087165;28;20811;-75
2022/02/10 20:41:31;;;;;;;10.17;6.20;;;5.90;99.90;;;6.44;100.00;98581.13;5087228;28;20524;-75
2022/02/10 20:44:01;;;;;;;10.73;5.93;;;5.90;99.90;;;6.48;100.00;98572.09;5085610;28;20451;-75
2022/02/10 20:46:33;;;;;;;10.03;6.40;;;5.90;99.90;;;6.50;100.00;98580.53;5083016;28;20487;-76
2022/02/10 20:49:02;;;;;;;9.40;5.47;;;6.00;99.90;;;6.50;100.00;98571.91;5085815;28;20495;-75
2022/02/10 20:51:32;;;;;;;15.10;6.20;;;6.00;99.90;;;6.48;100.00;98572.09;5081890;28;20459;-76
2022/02/10 20:54:02;;;;;;;12.03;6.90;;;5.90;99.90;;;6.43;100.00;98569.09;5085276;28;20504;-75
2022/02/10 20:56:33;;;;;;;8.80;5.90;;;5.80;99.90;;;6.46;100.00;98574.00;5082690;28;20477;-76
2022/02/10 20:59:09;;;;;;;10.60;5.67;;;5.90;99.90;;;6.48;100.00;98577.28;5082548;28;20938;-75
2022/02/10 21:01:39;;;;;;;10.43;6.87;;;6.00;99.90;;;6.44;100.00;98575.94;5083061;28;20903;-76
2022/02/10 21:04:10;;;;;;;10.37;6.40;;;5.90;99.90;;;6.46;100.00;98566.19;5081668;28;20462;-75
2022/02/10 21:06:52;;;;;;;10.30;7.20;;;5.90;99.90;;;6.47;100.00;98572.22;5081491;28;20466;-75
2022/02/10 21:09:34;;;;;;;13.47;6.00;;;6.00;99.90;;;6.45;100.00;98566.38;5076530;28;20491;-75
2022/02/10 21:12:08;;;;;;;9.57;5.83;;;5.90;99.90;;;6.44;100.00;98562.94;5074248;28;20458;-75
2022/02/10 21:14:38;;;;;;;12.77;6.83;;;5.90;99.90;;;6.46;100.00;98566.19;5077312;28;20470;-75
2022/02/10 21:17:09;;;;;;;9.80;6.83;;;5.90;99.90;;;6.44;100.00;98559.53;5078814;28;20544;-75
2022/02/10 21:19:41;;;;;;;13.00;6.73;;;5.90;99.90;;;6.45;100.00;98556.81;5081999;28;20490;-76
2022/02/10 21:22:16;;;;;;;12.63;7.27;;;5.90;99.90;;;6.46;100.00;98563.59;5080113;28;21185;-75
2022/02/10 21:24:52;;;;;;;8.33;6.07;;;5.90;99.90;;;6.48;100.00;98560.88;5079748;28;20481;-76
2022/02/10 21:27:33;;;;;;;10.83;6.53;;;6.00;99.90;;;6.44;100.00;98568.16;5078556;28;20535;-75
2022/02/10 21:30:05;;;;;;;9.00;6.10;;;5.90;99.90;;;6.45;100.00;98561.16;5081381;28;20468;-76
2022/02/10 21:32:39;;;;;;;13.57;6.67;;;5.90;99.90;;;6.44;100.00;98560.34;5079850;28;20513;-75
2022/02/10 21:35:23;;;;;;;11.07;7.07;;;5.90;99.90;;;6.45;100.00;98551.59;5077799;28;20461;-75
2022/02/10 21:37:57;;;;;;;8.70;5.83;;;6.00;99.90;;;6.45;100.00;98554.19;5077980;28;21029;-76
2022/02/10 21:40:35;;;;;;;9.37;5.93;;;5.90;99.90;;;6.46;100.00;98553.22;5080326;28;20455;-75
2022/02/10 21:54:56;;;;;;;14.87;7.17;;;5.70;99.90;;;6.45;100.00;98553.38;5057442;28;20471;-75
2022/02/10 21:57:48;;;;;;;11.33;5.87;;;5.80;99.90;;;6.45;100.00;98546.41;5085164;28;20566;-75
2022/02/10 22:01:11;;;;;;;8.50;5.83;;;5.70;99.90;;;6.45;100.00;98550.78;5083066;28;20447;-76
2022/02/10 22:04:00;;;;;;;7.37;5.23;;;5.80;99.90;;;6.46;100.00;98547.19;5080810;28;20921;-75
2022/02/10 22:09:43;;;;;;;8.93;5.40;;;5.60;99.90;;;6.44;100.00;98538.75;5079589;28;20582;-75
2022/02/10 22:20:42;;;;;;;6.00;3.80;;;5.80;99.90;;;6.38;100.00;98541.94;5072949;28;21007;-75
2022/02/10 22:23:20;;;;;;;7.27;4.60;;;5.70;99.90;;;6.37;100.00;98550.69;5079712;28;20455;-75
2022/02/10 22:25:56;;;;;;;7.93;4.60;;;5.70;99.90;;;6.37;100.00;98550.69;5077510;28;20974;-76
2022/02/10 22:28:33;;;;;;;6.00;3.97;;;5.70;99.90;;;6.31;100.00;98546.91;5079701;28;21027;-75
2022/02/10 22:31:24;;;;;;;6.47;3.90;;;5.60;99.90;;;6.32;100.00;98543.34;5080437;28;20455;-75
2022/02/10 22:34:25;;;;;;;7.87;4.27;;;5.70;99.90;;;6.34;100.00;98548.41;5079214;28;20511;-75
2022/02/10 22:36:59;;;;;;;4.90;3.80;;;5.50;99.90;;;6.27;100.00;98542.97;5080842;28;20460;-75
2022/02/10 22:39:35;;;;;;;5.90;3.93;;;5.50;99.90;;;6.30;100.00;98547.06;5079024;28;20454;-75
2022/02/10 22:42:07;;;;;;;3.57;3.10;;;5.50;99.90;;;6.31;100.00;98539.13;5076171;28;20978;-75
2022/02/10 22:44:39;;;;;;;5.00;3.43;;;5.70;99.90;;;6.27;100.00;98539.56;5079325;28;20456;-76
2022/02/10 22:47:09;;;;;;;4.30;3.00;;;5.60;99.90;;;6.27;100.00;98542.97;5078268;28;20808;-75
2022/02/10 22:49:40;;;;;;;4.30;3.50;;;5.50;99.90;;;6.24;100.00;98538.09;5082147;28;20843;-76
2022/02/10 22:52:13;;;;;;;5.77;3.50;;;5.50;99.90;;;6.25;100.00;98541.50;5080097;28;20859;-75
2022/02/10 22:54:43;;;;;;;5.10;3.43;;;5.70;99.90;;;6.25;100.00;98538.91;5075989;28;20468;-75
2022/02/10 22:57:13;;;;;;;4.27;3.30;;;5.50;99.90;;;6.23;100.00;98551.19;5079090;28;20459;-75
2022/02/10 22:59:44;;;;;;;4.10;3.00;;;5.50;99.90;;;6.24;100.00;98558.84;5079358;28;20459;-75
2022/02/10 23:02:14;;;;;;;11.57;3.80;;;5.50;99.90;;;6.24;100.00;98558.84;5076284;28;20459;-75
2022/02/10 23:04:46;;;;;;;7.13;3.80;;;5.40;99.90;;;6.20;100.00;98560.09;5080985;28;20459;-76
2022/02/10 23:07:17;;;;;;;6.67;3.77;;;5.40;99.90;;;6.20;100.00;98562.72;5077991;28;20934;-76
2022/02/10 23:09:53;;;;;;;5.30;3.33;;;5.40;99.90;;;6.20;100.00;98565.31;5077184;28;21057;-75
2022/02/10 23:12:22;;;;;;;3.67;2.43;;;5.40;99.90;;;6.20;100.00;98564.47;5078336;28;20727;-75
2022/02/10 23:14:52;;;;;;;4.73;3.03;;;5.40;99.90;;;6.20;100.00;98564.47;5078227;28;20935;-75
2022/02/10 23:17:21;;;;;;;2.83;2.40;;;5.30;99.90;;;6.15;100.00;98575.28;5081730;28;20520;-75
2022/02/10 23:19:52;;;;;;;3.23;2.77;;;5.30;99.90;;;6.18;100.00;98569.81;5084609;28;20451;-75
2022/02/10 23:22:21;;;;;;;6.90;3.00;;;5.30;99.90;;;6.14;100.00;98578.88;5082127;28;20483;-75
2022/02/10 23:24:51;;;;;;;3.93;2.90;;;5.20;99.90;;;6.13;100.00;98581.59;5081156;28;20466;-76
2022/02/10 23:27:20;;;;;;;3.27;2.50;;;5.20;99.90;;;6.14;100.00;98599.66;5080045;28;20460;-75
2022/02/10 23:29:50;;;;;;;4.17;2.73;;;5.30;99.90;;;6.12;100.00;98596.38;5079689;28;20488;-76
2022/02/10 23:32:20;;;;;;;7.93;3.20;;;5.20;99.90;;;6.14;100.00;98610.03;5076579;28;20463;-75
2022/02/10 23:34:50;;;;;;;2.63;1.40;;;5.30;99.90;;;6.04;100.00;98612.66;5079772;28;20499;-76
2022/02/10 23:37:22;;;;;;;1.43;1.33;;;5.30;99.90;;;6.05;100.00;98610.88;5077461;28;20490;-75
2022/02/10 23:39:52;;;;;;;1.20;1.10;;;5.50;99.90;;;5.98;100.00;98615.00;5078443;28;20486;-76
2022/02/10 23:42:28;;;;;;;1.57;1.00;;;5.40;99.90;;;5.93;100.00;98617.25;5079470;28;20506;-75
2022/02/10 23:45:07;;;;;;;1.30;1.20;;;5.50;99.90;;;5.85;100.00;98612.72;5080906;28;20466;-75
2022/02/10 23:47:37;;;;;;;0.90;0.90;;;5.30;99.90;;;5.89;100.00;98631.47;5079489;28;20459;-75
2022/02/10 23:50:16;;;;;;;0.80;0.73;;;5.30;99.90;;;5.84;100.00;98626.66;5077568;28;20487;-75
2022/02/10 23:52:51;;;;;;;0.70;0.70;;;5.30;99.90;;;5.78;100.00;98636.78;5075675;28;20467;-75
2022/02/10 23:55:28;;;;;;;0.70;0.70;;;5.30;99.90;;;5.75;100.00;98645.69;5082720;28;20470;-75
2022/02/10 23:58:07;;;;;;;0.70;0.70;;;5.30;99.90;;;5.73;100.00;98646.75;5081583;28;20559;-75
